createdAt,value
2023-02-01T00:01:24.099Z,16.25
2023-02-01T00:03:52.336Z,14.35
2023-02-01T00:06:20.921Z,12.25
2023-02-01T00:08:49.333Z,17.80
2023-02-01T00:11:19.068Z,14.88
2023-02-01T00:13:47.684Z,13.57
2023-02-01T00:16:18.353Z,17.80
2023-02-01T00:18:46.838Z,17.90
2023-02-01T00:21:15.589Z,17.58
2023-02-01T00:23:44.142Z,17.80
2023-02-01T00:26:17.214Z,14.63
2023-02-01T00:28:47.459Z,13.40
2023-02-01T00:31:16.083Z,13.25
2023-02-01T00:33:44.580Z,16.75
2023-02-01T00:36:12.831Z,16.85
2023-02-01T00:38:41.895Z,14.68
2023-02-01T00:41:13.892Z,16.15
2023-02-01T00:43:42.602Z,18.25
2023-02-01T00:46:13.114Z,13.00
2023-02-01T00:48:41.501Z,20.38
2023-02-01T00:51:12.292Z,15.18
2023-02-01T00:53:40.564Z,10.73
2023-02-01T00:56:10.220Z,14.35
2023-02-01T00:58:38.278Z,16.38
2023-02-01T01:01:08.556Z,13.60
2023-02-01T01:03:39.854Z,16.88
2023-02-01T01:06:10.207Z,12.20
2023-02-01T01:08:39.134Z,14.30
2023-02-01T01:11:08.627Z,14.65
2023-02-01T01:13:36.852Z,15.02
2023-02-01T01:16:07.065Z,14.90
2023-02-01T01:18:38.136Z,15.45
2023-02-01T01:21:07.675Z,15.98
2023-02-01T01:23:36.610Z,13.02
2023-02-01T01:26:08.186Z,15.50
2023-02-01T01:28:36.745Z,12.05
2023-02-01T01:31:06.719Z,13.35
2023-02-01T01:33:34.666Z,16.10
2023-02-01T01:36:06.420Z,14.35
2023-02-01T01:38:34.888Z,11.32
2023-02-01T01:41:03.000Z,15.30
2023-02-01T01:43:49.993Z,13.23
2023-02-01T01:46:19.719Z,12.25
2023-02-01T01:48:50.033Z,15.98
2023-02-01T01:51:22.406Z,12.60
2023-02-01T01:53:55.959Z,14.25
2023-02-01T01:56:24.572Z,16.13
2023-02-01T01:58:54.022Z,16.90
2023-02-01T02:01:22.286Z,14.13
2023-02-01T02:03:50.671Z,16.35
2023-02-01T02:06:30.049Z,14.25
2023-02-01T02:08:58.165Z,18.27
2023-02-01T02:11:26.270Z,15.35
2023-02-01T02:13:56.987Z,14.77
2023-02-01T02:16:54.699Z,16.13
2023-02-01T02:20:10.600Z,14.73
2023-02-01T02:23:09.030Z,13.73
2023-02-01T02:25:58.721Z,15.02
2023-02-01T02:28:59.181Z,13.45
2023-02-01T02:31:50.441Z,12.50
2023-02-01T02:34:26.792Z,15.40
2023-02-01T02:37:06.780Z,19.85
2023-02-01T02:39:43.395Z,14.60
2023-02-01T02:42:33.237Z,13.98
2023-02-01T02:45:24.429Z,12.50
2023-02-01T02:47:57.166Z,17.35
2023-02-01T02:50:49.326Z,11.70
2023-02-01T02:53:38.447Z,17.13
2023-02-01T02:56:26.695Z,10.07
2023-02-01T02:59:14.061Z,13.57
2023-02-01T03:02:00.575Z,14.88
2023-02-01T03:04:28.942Z,15.00
2023-02-01T03:06:58.733Z,14.15
2023-02-01T03:09:33.377Z,14.55
2023-02-01T03:12:23.276Z,16.77
2023-02-01T03:14:56.328Z,14.30
2023-02-01T03:17:31.905Z,13.60
2023-02-01T03:20:04.729Z,15.55
2023-02-01T03:22:36.172Z,12.55
2023-02-01T03:25:11.216Z,12.18
2023-02-01T03:27:44.025Z,12.48
2023-02-01T03:30:19.095Z,13.77
2023-02-01T03:33:00.052Z,11.55
2023-02-01T03:35:33.159Z,16.35
2023-02-01T03:38:10.355Z,14.80
2023-02-01T03:40:40.008Z,11.70
2023-02-01T03:43:10.386Z,14.50
2023-02-01T03:45:43.727Z,16.20
2023-02-01T03:48:15.390Z,15.25
2023-02-01T03:50:50.872Z,13.23
2023-02-01T03:53:24.625Z,17.33
2023-02-01T03:55:54.739Z,12.60
2023-02-01T03:58:24.672Z,12.93
2023-02-01T04:00:55.282Z,13.52
2023-02-01T04:03:23.822Z,13.95
2023-02-01T04:05:51.946Z,14.98
2023-02-01T04:08:22.431Z,16.20
2023-02-01T04:10:50.980Z,11.77
2023-02-01T04:13:19.052Z,16.50
2023-02-01T04:15:50.878Z,11.65
2023-02-01T04:18:19.268Z,15.68
2023-02-01T04:20:47.450Z,16.90
2023-02-01T04:23:16.801Z,17.40
2023-02-01T04:25:46.760Z,16.38
2023-02-01T04:28:15.009Z,18.55
2023-02-01T04:30:44.466Z,13.50
2023-02-01T04:33:14.911Z,11.85
2023-02-01T04:35:44.225Z,13.48
2023-02-01T04:38:13.540Z,14.55
2023-02-01T04:40:41.700Z,10.35
2023-02-01T04:43:11.303Z,11.13
2023-02-01T04:45:39.355Z,11.27
2023-02-01T04:48:07.851Z,15.90
2023-02-01T04:50:35.910Z,16.52
2023-02-01T04:53:04.087Z,13.48
2023-02-01T04:55:32.148Z,11.35
2023-02-01T04:58:00.656Z,12.98
2023-02-01T05:00:31.275Z,14.20
2023-02-01T05:02:59.737Z,13.40
2023-02-01T05:05:28.970Z,14.32
2023-02-01T05:07:57.242Z,15.52
2023-02-01T05:10:25.684Z,12.80
2023-02-01T05:13:10.911Z,15.05
2023-02-01T05:15:40.487Z,17.23
2023-02-01T05:18:08.893Z,11.55
2023-02-01T05:20:37.383Z,11.35
2023-02-01T05:23:05.655Z,13.20
2023-02-01T05:25:33.799Z,12.15
2023-02-01T05:28:03.872Z,14.60
2023-02-01T05:30:36.315Z,13.75
2023-02-01T05:33:08.670Z,14.05
2023-02-01T05:35:36.938Z,13.95
2023-02-01T05:38:05.146Z,13.02
2023-02-01T05:40:33.313Z,16.08
2023-02-01T05:43:01.433Z,14.65
2023-02-01T05:45:29.732Z,11.52
2023-02-01T05:47:57.739Z,10.95
2023-02-01T05:50:27.120Z,12.48
2023-02-01T05:52:55.398Z,11.23
2023-02-01T05:55:23.701Z,12.88
2023-02-01T05:57:52.330Z,15.93
2023-02-01T06:00:25.169Z,16.88
2023-02-01T06:02:56.758Z,13.95
2023-02-01T06:05:26.866Z,13.70
2023-02-01T06:07:54.982Z,10.35
2023-02-01T06:10:23.471Z,15.05
2023-02-01T06:12:51.696Z,15.35
2023-02-01T06:15:19.706Z,17.30
2023-02-01T06:17:48.391Z,15.90
2023-02-01T06:20:17.778Z,12.70
2023-02-01T06:22:49.642Z,12.50
2023-02-01T06:25:18.987Z,14.25
2023-02-01T06:27:50.844Z,14.57
2023-02-01T06:30:19.567Z,10.75
2023-02-01T06:32:54.553Z,10.10
2023-02-01T06:35:22.909Z,15.10
2023-02-01T06:37:53.389Z,18.75
2023-02-01T06:40:21.926Z,13.45
2023-02-01T06:42:51.040Z,12.18
2023-02-01T06:45:19.437Z,12.88
2023-02-01T06:47:47.662Z,11.98
2023-02-01T06:50:16.024Z,14.70
2023-02-01T06:52:43.953Z,13.50
2023-02-01T06:55:13.990Z,12.00
2023-02-01T06:57:42.482Z,11.30
2023-02-01T07:00:11.785Z,10.48
2023-02-01T07:02:40.422Z,7.53
2023-02-01T07:05:10.218Z,12.68
2023-02-01T07:07:38.463Z,12.57
2023-02-01T07:10:07.752Z,9.07
2023-02-01T07:12:37.963Z,10.10
2023-02-01T07:15:07.229Z,7.53
2023-02-01T07:17:35.228Z,10.98
2023-02-01T07:20:03.892Z,13.07
2023-02-01T07:22:32.225Z,13.70
2023-02-01T07:25:00.498Z,10.48
2023-02-01T07:27:28.881Z,9.93
2023-02-01T07:30:02.846Z,8.52
2023-02-01T07:32:31.383Z,11.57
2023-02-01T07:34:59.837Z,10.75
2023-02-01T07:37:28.094Z,9.98
2023-02-01T07:39:56.341Z,10.43
2023-02-01T07:42:24.669Z,8.82
2023-02-01T07:44:52.932Z,8.82
2023-02-01T07:47:24.434Z,8.48
2023-02-01T07:49:52.887Z,7.85
2023-02-01T07:52:21.163Z,9.00
2023-02-01T07:54:49.359Z,11.43
2023-02-01T07:57:17.593Z,7.80
2023-02-01T07:59:59.902Z,13.70
2023-02-01T08:02:29.451Z,8.18
2023-02-01T08:04:57.711Z,10.85
2023-02-01T08:07:26.540Z,8.13
2023-02-01T08:09:54.524Z,7.65
2023-02-01T08:12:25.553Z,13.27
2023-02-01T08:14:54.385Z,9.38
2023-02-01T08:17:22.359Z,9.07
2023-02-01T08:19:53.851Z,11.73
2023-02-01T08:22:22.493Z,10.55
2023-02-01T08:24:51.251Z,8.25
2023-02-01T08:27:19.741Z,9.32
2023-02-01T08:29:48.034Z,10.88
2023-02-01T08:32:16.134Z,9.50
2023-02-01T08:34:44.155Z,9.07
2023-02-01T08:37:13.722Z,12.00
2023-02-01T08:39:46.825Z,10.52
2023-02-01T08:42:33.101Z,12.98
2023-02-01T08:45:01.606Z,9.80
2023-02-01T08:47:31.096Z,13.43
2023-02-01T08:49:59.410Z,11.30
2023-02-01T08:52:36.269Z,14.15
2023-02-01T08:55:06.821Z,10.02
2023-02-01T08:57:34.910Z,13.32
2023-02-01T09:00:03.230Z,16.58
2023-02-01T09:02:31.282Z,10.35
2023-02-01T09:05:02.620Z,10.55
2023-02-01T09:07:33.500Z,15.05
2023-02-01T09:10:02.401Z,12.38
2023-02-01T09:12:31.137Z,12.13
2023-02-01T09:15:00.832Z,14.13
2023-02-01T09:19:57.231Z,11.00
2023-02-01T09:22:25.692Z,14.63
2023-02-01T09:24:56.155Z,15.48
2023-02-01T09:27:24.631Z,12.02
2023-02-01T09:29:54.017Z,11.90
2023-02-01T09:32:23.254Z,14.35
2023-02-01T09:34:51.603Z,11.88
2023-02-01T09:37:19.911Z,10.93
2023-02-01T09:39:48.597Z,11.20
2023-02-01T09:42:34.231Z,14.48
2023-02-01T09:45:15.322Z,10.85
2023-02-01T09:47:50.115Z,17.05
2023-02-01T09:50:22.418Z,12.60
2023-02-01T09:52:56.152Z,10.98
2023-02-01T09:55:32.476Z,11.70
2023-02-01T09:58:05.921Z,12.68
2023-02-01T10:00:39.681Z,12.60
2023-02-01T10:03:13.290Z,11.32
2023-02-01T10:05:57.088Z,13.77
2023-02-01T10:08:34.660Z,13.05
2023-02-01T10:11:15.340Z,11.80
2023-02-01T10:13:55.078Z,11.13
2023-02-01T10:16:32.435Z,12.73
2023-02-01T10:19:25.941Z,11.27
2023-02-01T10:21:59.153Z,9.00
2023-02-01T10:24:41.317Z,11.32
2023-02-01T10:27:21.479Z,13.60
2023-02-01T10:29:56.341Z,13.23
2023-02-01T10:32:42.353Z,11.40
2023-02-01T10:35:17.029Z,9.85
2023-02-01T10:37:47.505Z,12.70
2023-02-01T10:40:20.892Z,10.35
2023-02-01T10:42:49.597Z,11.20
2023-02-01T10:45:26.701Z,12.20
2023-02-01T10:47:57.716Z,12.07
2023-02-01T10:50:41.444Z,10.68
2023-02-01T10:53:14.058Z,13.80
2023-02-01T10:55:50.321Z,8.10
2023-02-01T10:58:20.575Z,10.60
2023-02-01T11:00:55.727Z,15.95
2023-02-01T11:03:35.718Z,13.48
2023-02-01T11:06:10.715Z,11.35
2023-02-01T11:08:46.419Z,12.98
2023-02-01T11:11:14.596Z,12.18
2023-02-01T11:13:43.378Z,15.40
2023-02-01T11:16:17.137Z,9.30
2023-02-01T11:18:45.435Z,14.18
2023-02-01T11:21:14.047Z,12.38
2023-02-01T11:23:45.138Z,18.15
2023-02-01T11:26:16.549Z,14.10
2023-02-01T11:28:52.852Z,12.57
2023-02-01T11:31:22.953Z,12.13
2023-02-01T11:33:54.989Z,11.57
2023-02-01T11:36:27.641Z,13.77
2023-02-01T11:39:09.058Z,11.20
2023-02-01T11:41:42.552Z,14.95
2023-02-01T11:44:24.053Z,14.15
2023-02-01T11:46:56.306Z,15.80
2023-02-01T11:49:27.297Z,13.95
2023-02-01T11:52:12.625Z,11.27
2023-02-01T11:55:08.671Z,13.50
2023-02-01T11:57:48.492Z,10.13
2023-02-01T12:00:34.475Z,10.77
2023-02-01T12:03:30.802Z,8.77
2023-02-01T12:06:03.551Z,12.98
2023-02-01T12:08:56.077Z,9.27
2023-02-01T12:11:44.658Z,16.00
2023-02-01T12:14:32.714Z,13.75
2023-02-01T12:17:19.871Z,13.27
2023-02-01T12:20:05.017Z,10.45
2023-02-01T12:22:44.008Z,12.43
2023-02-01T12:25:23.057Z,13.82
2023-02-01T12:28:32.353Z,15.82
2023-02-01T12:31:17.641Z,13.25
2023-02-01T12:33:59.942Z,13.45
2023-02-01T12:36:39.583Z,9.55
2023-02-01T12:39:18.354Z,11.02
2023-02-01T12:41:52.265Z,10.48
2023-02-01T12:44:30.980Z,9.75
2023-02-01T12:47:03.344Z,11.85
2023-02-01T12:49:40.622Z,13.48
2023-02-01T12:52:17.881Z,12.38
2023-02-01T12:54:51.440Z,11.88
2023-02-01T12:57:25.289Z,15.40
2023-02-01T12:59:58.918Z,12.73
2023-02-01T13:02:34.316Z,15.65
2023-02-01T13:05:10.158Z,15.50
2023-02-01T13:07:46.105Z,15.15
2023-02-01T13:10:21.086Z,11.82
2023-02-01T13:12:55.737Z,11.07
2023-02-01T13:15:27.227Z,12.40
2023-02-01T13:17:59.797Z,11.63
2023-02-01T13:20:33.380Z,12.82
2023-02-01T13:23:13.947Z,13.27
2023-02-01T13:25:49.153Z,12.45
2023-02-01T13:28:21.574Z,13.27
2023-02-01T13:31:08.777Z,13.25
2023-02-01T13:33:56.613Z,11.77
2023-02-01T13:36:36.969Z,11.73
2023-02-01T13:39:35.029Z,9.43
2023-02-01T13:42:05.811Z,9.55
2023-02-01T13:44:38.756Z,12.38
2023-02-01T13:47:20.782Z,10.60
2023-02-01T13:49:49.281Z,11.20
2023-02-01T13:52:28.588Z,8.98
2023-02-01T13:55:28.685Z,9.90
2023-02-01T13:58:08.238Z,9.90
2023-02-01T14:00:37.921Z,9.23
2023-02-01T14:03:25.111Z,8.40
2023-02-01T14:06:16.009Z,9.50
2023-02-01T14:08:48.415Z,10.07
2023-02-01T14:11:51.929Z,7.53
2023-02-01T14:14:47.854Z,10.68
2023-02-01T14:17:37.556Z,5.47
2023-02-01T14:20:51.822Z,7.15
2023-02-01T14:23:34.825Z,7.53
2023-02-01T14:26:19.673Z,6.95
2023-02-01T14:29:08.602Z,7.53
2023-02-01T14:32:05.186Z,7.70
2023-02-01T14:35:05.910Z,5.47
2023-02-01T14:37:46.025Z,4.05
2023-02-01T14:40:56.955Z,3.97
2023-02-01T14:44:19.860Z,6.28
2023-02-01T14:47:39.060Z,2.90
2023-02-01T14:50:20.961Z,4.47
2023-02-01T14:53:01.645Z,3.92
2023-02-01T14:55:40.818Z,2.88
2023-02-01T14:58:23.369Z,2.60
2023-02-01T15:01:08.938Z,4.72
2023-02-01T15:03:50.264Z,4.63
2023-02-01T15:06:46.636Z,3.42
2023-02-01T15:09:19.773Z,1.50
2023-02-01T15:12:19.429Z,3.35
2023-02-01T15:15:23.811Z,2.22
2023-02-01T15:18:00.845Z,2.67
2023-02-01T15:20:37.613Z,2.45
2023-02-01T15:23:12.789Z,3.40
2023-02-01T15:25:53.961Z,2.95
2023-02-01T15:28:37.160Z,2.35
2023-02-01T15:31:32.136Z,2.72
2023-02-01T15:34:25.121Z,2.85
2023-02-01T15:37:19.375Z,2.33
2023-02-01T15:40:36.044Z,1.67
2023-02-01T15:43:13.004Z,4.68
2023-02-01T15:45:58.131Z,3.30
2023-02-01T15:49:21.921Z,5.38
2023-02-01T15:52:06.751Z,3.50
2023-02-01T15:58:50.095Z,2.90
2023-02-01T16:02:02.701Z,4.00
2023-02-01T16:04:33.757Z,5.90
2023-02-01T16:07:30.311Z,5.00
2023-02-01T16:10:22.693Z,4.32
2023-02-01T16:12:59.877Z,5.20
2023-02-01T16:15:34.307Z,6.47
2023-02-01T16:18:10.731Z,3.08
2023-02-01T16:20:51.246Z,3.63
2023-02-01T16:23:27.188Z,3.20
2023-02-01T16:25:55.332Z,5.35
2023-02-01T16:28:24.901Z,4.13
2023-02-01T16:30:56.237Z,4.22
2023-02-01T16:33:25.420Z,9.55
2023-02-01T16:36:05.127Z,7.35
2023-02-01T16:38:35.611Z,11.90
2023-02-01T16:41:09.487Z,16.40
2023-02-01T16:43:38.199Z,21.38
2023-02-01T16:46:08.756Z,26.05
2023-02-01T16:48:39.637Z,19.45
2023-02-01T16:51:16.491Z,14.25
2023-02-01T16:53:54.336Z,7.43
2023-02-01T16:56:25.066Z,17.80
2023-02-01T16:59:03.109Z,19.75
2023-02-01T17:01:50.098Z,11.45
2023-02-01T17:04:23.146Z,13.95
2023-02-01T17:06:53.583Z,11.32
2023-02-01T17:09:27.584Z,9.73
2023-02-01T17:12:03.058Z,7.18
2023-02-01T17:14:40.284Z,10.10
2023-02-01T17:17:38.012Z,8.82
2023-02-01T17:20:03.069Z,9.73
2023-02-01T17:22:31.749Z,8.57
2023-02-01T17:25:07.237Z,14.13
2023-02-01T17:27:40.428Z,9.80
2023-02-01T17:30:15.881Z,13.20
2023-02-01T17:32:46.521Z,14.00
2023-02-01T17:35:22.826Z,12.88
2023-02-01T17:37:51.869Z,12.95
2023-02-01T17:40:22.265Z,12.55
2023-02-01T17:42:52.229Z,13.43
2023-02-01T17:45:36.458Z,13.73
2023-02-01T17:48:08.934Z,12.55
2023-02-01T17:50:39.091Z,11.35
2023-02-01T17:53:09.682Z,13.23
2023-02-01T17:55:44.136Z,9.60
2023-02-01T17:58:13.909Z,16.08
2023-02-01T18:00:42.288Z,17.60
2023-02-01T18:03:22.506Z,14.20
2023-02-01T18:05:53.589Z,12.70
2023-02-01T18:08:25.602Z,11.93
2023-02-01T18:10:59.789Z,11.85
2023-02-01T18:13:29.653Z,9.95
2023-02-01T18:15:59.928Z,9.27
2023-02-01T18:18:32.253Z,14.70
2023-02-01T18:21:01.641Z,15.80
2023-02-01T18:23:30.785Z,13.77
2023-02-01T18:26:00.708Z,11.13
2023-02-01T18:28:28.683Z,10.07
2023-02-01T18:30:57.390Z,14.98
2023-02-01T18:33:26.326Z,10.57
2023-02-01T18:35:54.386Z,7.47
2023-02-01T18:38:23.072Z,8.95
2023-02-01T18:40:57.655Z,11.63
2023-02-01T18:43:28.055Z,12.75
2023-02-01T18:45:58.470Z,8.13
2023-02-01T18:48:26.942Z,10.27
2023-02-01T18:50:57.719Z,16.88
2023-02-01T18:53:27.532Z,9.35
2023-02-01T18:55:57.754Z,9.60
2023-02-01T18:58:28.086Z,6.80
2023-02-01T19:00:57.791Z,12.73
2023-02-01T19:03:27.010Z,14.27
2023-02-01T19:05:57.881Z,8.95
2023-02-01T19:08:26.345Z,9.48
2023-02-01T19:10:55.926Z,12.02
2023-02-01T19:13:31.597Z,10.00
2023-02-01T19:16:00.031Z,12.93
2023-02-01T19:18:28.490Z,13.68
2023-02-01T19:21:03.157Z,9.00
2023-02-01T19:23:33.762Z,11.60
2023-02-01T19:26:02.067Z,13.68
2023-02-01T19:28:31.494Z,13.35
2023-02-01T19:31:03.890Z,14.55
2023-02-01T19:33:32.344Z,9.30
2023-02-01T19:36:01.088Z,9.25
2023-02-01T19:38:29.395Z,8.65
2023-02-01T19:40:57.666Z,10.45
2023-02-01T19:43:26.232Z,9.95
2023-02-01T19:45:57.432Z,9.10
2023-02-01T19:48:25.888Z,9.32
2023-02-01T19:50:59.846Z,9.18
2023-02-01T19:53:30.248Z,12.55
2023-02-01T19:56:04.260Z,15.82
2023-02-01T19:58:32.970Z,14.18
2023-02-01T20:01:13.497Z,13.02
2023-02-01T20:03:52.361Z,9.68
2023-02-01T20:06:21.900Z,10.77
2023-02-01T20:08:50.194Z,17.83
2023-02-01T20:11:20.478Z,11.15
2023-02-01T20:13:49.833Z,12.65
2023-02-01T20:16:19.912Z,13.98
2023-02-01T20:18:51.061Z,11.02
2023-02-01T20:21:20.059Z,12.77
2023-02-01T20:23:50.391Z,12.80
2023-02-01T20:26:24.684Z,8.32
2023-02-01T20:28:53.789Z,10.10
2023-02-01T20:31:29.075Z,11.93
2023-02-01T20:34:02.332Z,9.43
2023-02-01T20:36:33.455Z,10.90
2023-02-01T20:39:07.125Z,11.15
2023-02-01T20:41:41.347Z,10.40
2023-02-01T20:44:25.115Z,13.23
2023-02-01T20:47:02.786Z,10.40
2023-02-01T20:49:31.556Z,11.70
2023-02-01T20:52:00.125Z,11.35
2023-02-01T20:54:28.730Z,12.43
2023-02-01T20:56:57.602Z,9.35
2023-02-01T20:59:27.991Z,10.20
2023-02-01T21:01:57.931Z,11.70
2023-02-01T21:04:35.067Z,11.38
2023-02-01T21:07:03.482Z,10.77
2023-02-01T21:09:32.507Z,8.25
2023-02-01T21:12:00.904Z,11.32
2023-02-01T21:14:30.591Z,11.90
2023-02-01T21:17:00.699Z,11.20
2023-02-01T21:19:29.211Z,10.50
2023-02-01T21:21:57.318Z,12.20
2023-02-01T21:24:25.574Z,13.93
2023-02-01T21:26:53.977Z,11.10
2023-02-01T21:29:25.820Z,10.85
2023-02-01T21:31:54.332Z,13.25
2023-02-01T21:34:24.294Z,12.45
2023-02-01T21:36:52.520Z,9.07
2023-02-01T21:39:22.715Z,10.23
2023-02-01T21:42:08.420Z,16.50
2023-02-01T21:44:36.636Z,11.73
2023-02-01T21:47:12.539Z,12.20
2023-02-01T21:49:42.160Z,10.35
2023-02-01T21:52:12.902Z,11.40
2023-02-01T21:54:41.126Z,10.90
2023-02-01T21:57:12.113Z,15.18
2023-02-01T21:59:40.819Z,12.60
2023-02-01T22:02:15.810Z,10.30
2023-02-01T22:04:45.888Z,14.27
2023-02-01T22:07:14.227Z,11.65
2023-02-01T22:09:42.810Z,9.15
2023-02-01T22:12:12.902Z,8.60
2023-02-01T22:14:44.702Z,11.30
2023-02-01T22:17:13.596Z,14.05
2023-02-01T22:19:42.395Z,10.02
2023-02-01T22:22:12.947Z,14.07
2023-02-01T22:28:32.492Z,11.68
2023-02-01T22:31:02.813Z,12.23
2023-02-01T22:33:31.885Z,11.90
2023-02-01T22:36:00.239Z,14.25
2023-02-01T22:38:33.075Z,14.27
2023-02-01T22:41:06.037Z,13.20
2023-02-01T22:43:34.591Z,11.75
2023-02-01T22:46:02.927Z,9.85
2023-02-01T22:48:32.226Z,15.43
2023-02-01T22:51:01.648Z,13.48
2023-02-01T22:53:33.598Z,10.52
2023-02-01T22:56:02.881Z,16.17
2023-02-01T22:58:31.024Z,11.68
2023-02-01T23:01:08.236Z,15.65
2023-02-01T23:03:36.415Z,10.30
2023-02-01T23:06:06.506Z,12.95
2023-02-01T23:08:39.491Z,15.93
2023-02-01T23:11:09.262Z,19.38
2023-02-01T23:13:39.002Z,14.82
2023-02-01T23:16:09.237Z,8.07
2023-02-01T23:18:37.700Z,15.40
2023-02-01T23:21:08.362Z,18.55
2023-02-01T23:23:38.301Z,19.80
2023-02-01T23:26:06.829Z,19.30
2023-02-01T23:28:35.556Z,17.67
2023-02-01T23:31:09.100Z,13.27
2023-02-01T23:33:38.165Z,14.48
2023-02-01T23:36:08.764Z,15.10
2023-02-01T23:38:41.408Z,14.90
2023-02-01T23:41:10.912Z,10.65
2023-02-01T23:43:56.905Z,14.73
2023-02-01T23:46:25.845Z,15.27
2023-02-01T23:49:00.802Z,16.10
2023-02-01T23:51:29.405Z,12.60
2023-02-01T23:54:02.402Z,14.00
2023-02-01T23:56:33.308Z,13.57
2023-02-01T23:59:02.264Z,13.23
